Time;durP1;ratioP1;P1;durP2;ratioP2;P2;SDS_P1;SDS_P2;PMS_P1;PMS_P2;Temp;Humidity;BMP_temperature;BMP_pressure;BME280_temperature;BME280_humidity;BME280_pressure;Samples;Min_cycle;Max_cycle;Signal;HPM_P1;HPM_P2
2024/02/16 00:00:25;;;;;;;4.47;2.30;;;11.70;99.90;;;15.41;100.00;100462.47;5030226;28;20144;-79
2024/02/16 00:02:52;;;;;;;7.05;2.45;;;11.70;99.90;;;15.43;100.00;100457.56;5031401;28;20053;-79
2024/02/16 00:05:18;;;;;;;5.78;2.50;;;11.70;99.90;;;15.36;100.00;100447.56;5030677;28;20037;-79
2024/02/16 00:07:44;;;;;;;5.60;2.38;;;11.70;99.90;;;15.43;100.00;100452.88;5030679;28;20029;-79
2024/02/16 00:10:10;;;;;;;5.55;2.13;;;11.70;99.90;;;15.47;100.00;100455.97;5031312;28;20041;-79
2024/02/16 00:12:39;;;;;;;4.75;2.25;;;11.80;99.90;;;15.47;100.00;100456.78;5029583;28;20106;-79
2024/02/16 00:15:06;;;;;;;5.35;2.15;;;11.70;99.90;;;15.49;100.00;100456.53;5030183;28;20068;-79
2024/02/16 00:17:33;;;;;;;6.22;2.25;;;11.70;99.90;;;15.30;100.00;100447.75;5030571;28;20049;-79
2024/02/16 00:19:59;;;;;;;8.40;2.70;;;11.60;99.90;;;15.16;100.00;100445.38;5030608;28;20086;-79
2024/02/16 00:22:26;;;;;;;6.03;2.60;;;11.50;99.90;;;15.02;100.00;100444.88;5012227;28;20034;-79
2024/02/16 00:24:52;;;;;;;5.55;2.30;;;11.40;99.90;;;15.28;100.00;100448.00;5031150;28;20081;-79
2024/02/16 00:27:18;;;;;;;5.68;2.30;;;11.30;99.90;;;15.66;100.00;100453.72;5031697;28;20065;-79
2024/02/16 00:29:46;;;;;;;6.38;2.40;;;11.30;99.90;;;16.15;100.00;100455.69;5030715;28;20501;-79
2024/02/16 00:32:12;;;;;;;;;;;11.20;99.90;;;16.62;100.00;100453.38;5030667;28;20029;-79
2024/02/16 00:34:39;;;;;;;5.18;2.08;;;11.20;99.90;;;16.33;100.00;100457.28;5010817;28;19917;-79
2024/02/16 00:37:09;;;;;;;4.20;2.10;;;11.20;99.90;;;16.09;100.00;100442.97;5028969;28;20416;-79
2024/02/16 00:39:36;;;;;;;6.15;2.38;;;11.10;99.90;;;15.52;100.00;100442.28;5030238;28;20116;-79
2024/02/16 00:42:03;;;;;;;5.32;2.00;;;11.00;99.90;;;15.20;100.00;100424.53;5029882;28;20029;-79
2024/02/16 00:44:29;;;;;;;6.57;2.40;;;10.90;99.90;;;14.99;100.00;100425.34;5031117;28;20044;-79
2024/02/16 00:46:54;;;;;;;6.47;2.40;;;10.90;99.90;;;14.92;100.00;100415.34;5030568;28;20496;-79
2024/02/16 00:49:20;;;;;;;8.07;2.65;;;10.90;99.90;;;14.81;100.00;100419.84;5029993;28;20046;-79
2024/02/16 00:51:46;;;;;;;5.20;2.45;;;10.80;99.90;;;14.71;100.00;100411.47;5028081;28;20053;-80
2024/02/16 00:54:12;;;;;;;4.80;2.72;;;10.80;99.90;;;14.77;100.00;100404.16;5030159;28;20469;-79
2024/02/16 00:56:38;;;;;;;6.68;2.70;;;10.80;99.90;;;14.80;100.00;100411.88;5028296;28;20044;-79
2024/02/16 00:59:04;;;;;;;3.80;2.25;;;10.80;99.90;;;14.85;100.00;100406.47;5030634;28;20037;-80
2024/02/16 01:01:30;;;;;;;7.93;2.28;;;10.90;99.90;;;15.04;100.00;100404.25;5030449;28;20041;-80
2024/02/16 01:03:56;;;;;;;5.03;2.10;;;11.00;99.90;;;15.42;100.00;100407.25;5029426;28;20177;-79
2024/02/16 01:06:22;;;;;;;4.68;2.10;;;11.10;99.90;;;15.59;100.00;100404.44;5029816;28;20041;-79
2024/02/16 01:08:47;;;;;;;4.05;2.00;;;11.10;99.90;;;15.30;100.00;100412.03;5029141;28;20041;-79
2024/02/16 01:11:13;;;;;;;5.20;2.10;;;11.00;99.90;;;15.33;100.00;100419.78;5030371;28;20041;-79
2024/02/16 01:13:40;;;;;;;5.85;2.20;;;11.00;99.90;;;15.16;100.00;100412.41;5029859;28;20021;-79
2024/02/16 01:16:07;;;;;;;7.43;2.15;;;10.90;99.90;;;15.05;100.00;100407.84;5045735;28;20064;-79
2024/02/16 01:18:36;;;;;;;4.88;2.50;;;10.90;99.90;;;14.91;100.00;100401.88;5030303;28;20037;-77
2024/02/16 01:21:03;;;;;;;3.85;1.70;;;10.80;99.90;;;14.64;100.00;100395.13;5045274;28;20025;-78
2024/02/16 01:23:29;;;;;;;5.18;2.20;;;10.70;99.90;;;14.67;100.00;100397.34;5029477;28;20033;-77
2024/02/16 01:25:55;;;;;;;7.43;2.63;;;10.70;99.90;;;14.62;100.00;100397.28;5028583;28;20033;-77
2024/02/16 01:28:21;;;;;;;6.43;2.50;;;10.60;99.90;;;14.14;100.00;100402.25;5029314;28;20049;-77
2024/02/16 01:30:47;;;;;;;6.93;2.70;;;10.40;99.90;;;14.22;100.00;100399.09;5030050;28;20117;-78
2024/02/16 01:33:13;;;;;;;6.32;2.88;;;10.40;99.90;;;14.18;100.00;100395.19;5029174;28;20167;-79
2024/02/16 01:35:39;;;;;;;5.95;2.90;;;10.40;99.90;;;14.32;100.00;100381.13;5029729;28;20036;-79
2024/02/16 01:38:05;;;;;;;5.90;3.00;;;10.50;99.90;;;14.28;100.00;100383.56;5029618;28;20033;-79
2024/02/16 01:40:31;;;;;;;5.53;2.70;;;10.40;99.90;;;14.47;100.00;100384.16;5029001;28;20087;-78
2024/02/16 01:42:57;;;;;;;5.85;2.53;;;10.40;99.90;;;14.96;100.00;100385.47;5029303;28;20569;-78
2024/02/16 01:45:23;;;;;;;7.25;2.85;;;10.30;99.90;;;14.95;100.00;100390.13;5029327;28;20069;-79
2024/02/16 01:47:51;;;;;;;4.95;2.75;;;10.10;99.90;;;14.76;100.00;100384.06;5028335;28;20139;-78
2024/02/16 01:50:18;;;;;;;6.45;2.30;;;9.90;99.90;;;15.08;100.00;100391.69;5029301;28;20037;-78
2024/02/16 01:52:46;;;;;;;5.47;2.80;;;9.70;99.90;;;14.89;100.00;100382.09;5028555;28;20041;-78
2024/02/16 01:55:13;;;;;;;5.50;2.80;;;9.70;99.90;;;15.14;100.00;100378.03;5029840;28;20053;-78
2024/02/16 01:57:47;;;;;;;6.40;2.72;;;9.60;99.90;;;15.06;100.00;100377.38;5008570;28;20038;-78
2024/02/16 02:00:17;;;;;;;4.35;2.20;;;9.50;99.90;;;13.97;100.00;100373.94;5011658;28;20033;-79
2024/02/16 02:02:47;;;;;;;5.32;1.88;;;9.70;99.90;;;13.97;100.00;100365.72;5028770;28;20057;-78
2024/02/16 02:05:14;;;;;;;7.72;2.08;;;9.90;99.90;;;14.41;100.00;100371.44;5037369;28;20474;-79
2024/02/16 02:07:41;;;;;;;5.85;2.10;;;10.00;99.90;;;15.01;100.00;100374.56;5027704;28;20091;-78
2024/02/16 02:10:07;;;;;;;5.35;2.10;;;10.20;99.90;;;15.45;100.00;100373.75;5029049;28;20041;-78
2024/02/16 02:12:33;;;;;;;5.13;2.05;;;10.30;99.90;;;15.08;100.00;100375.19;5028738;28;20508;-78
2024/02/16 02:14:59;;;;;;;5.75;2.08;;;10.30;99.90;;;15.49;100.00;100374.06;5007671;28;20033;-78
2024/02/16 02:17:24;;;;;;;5.18;1.92;;;10.30;99.90;;;15.73;100.00;100362.78;5010216;28;20091;-78
2024/02/16 02:19:50;;;;;;;5.35;2.00;;;10.20;99.90;;;14.96;100.00;100369.81;5029319;28;20037;-78
2024/02/16 02:22:17;;;;;;;5.95;1.90;;;10.20;99.90;;;14.60;100.00;100365.69;5027424;28;20048;-78
2024/02/16 02:24:45;;;;;;;5.45;2.00;;;10.30;99.90;;;14.32;100.00;100351.81;5029131;28;20477;-78
2024/02/16 02:27:12;;;;;;;7.45;1.90;;;10.50;99.90;;;14.43;100.00;100349.22;5027863;28;20136;-78
2024/02/16 02:29:40;;;;;;;5.50;1.90;;;10.60;99.90;;;14.47;100.00;100353.16;5029421;28;20052;-78
2024/02/16 02:32:07;;;;;;;4.35;1.88;;;10.60;99.90;;;14.49;100.00;100350.97;5028173;28;20145;-78
2024/02/16 02:34:32;;;;;;;4.65;1.60;;;10.60;99.90;;;14.40;100.00;100339.59;5028601;28;20047;-78
2024/02/16 02:36:59;;;;;;;6.07;2.30;;;10.60;99.90;;;14.32;100.00;100331.75;5030134;28;20120;-78
2024/02/16 02:39:24;;;;;;;4.50;1.70;;;10.60;99.90;;;14.27;100.00;100335.25;5031264;28;20504;-78
2024/02/16 02:41:50;;;;;;;7.53;1.90;;;10.50;99.90;;;14.19;100.00;100328.25;5031533;28;20045;-77
2024/02/16 02:44:16;;;;;;;6.20;2.00;;;10.40;99.90;;;14.20;100.00;100338.16;5015250;28;20048;-78
2024/02/16 02:46:41;;;;;;;5.18;2.08;;;10.40;99.90;;;14.23;100.00;100337.66;5014986;28;20488;-78
2024/02/16 02:49:08;;;;;;;5.00;1.63;;;10.40;99.90;;;14.90;100.00;100337.06;5032037;28;20478;-78
2024/02/16 02:51:34;;;;;;;5.10;1.83;;;10.30;99.90;;;15.27;100.00;100336.44;5047574;28;20048;-78
2024/02/16 02:53:59;;;;;;;4.80;1.85;;;10.30;99.90;;;14.71;100.00;100334.59;5031564;28;20107;-78
2024/02/16 02:56:25;;;;;;;5.72;1.80;;;10.40;99.90;;;14.59;100.00;100333.84;5032526;28;20421;-78
2024/02/16 02:58:51;;;;;;;3.67;1.70;;;10.60;99.90;;;14.88;100.00;100330.97;5031733;28;20040;-78
2024/02/16 03:01:20;;;;;;;4.20;1.50;;;10.70;99.90;;;14.78;100.00;100332.47;5032245;28;20045;-78
2024/02/16 03:03:46;;;;;;;5.75;1.50;;;10.80;99.90;;;14.84;100.00;100316.91;5031506;28;20053;-79
2024/02/16 03:06:13;;;;;;;6.07;1.83;;;10.90;99.90;;;14.79;100.00;100314.94;5030987;28;20034;-78
2024/02/16 03:08:39;;;;;;;4.82;2.08;;;11.00;99.90;;;14.89;100.00;100314.25;5031830;28;20199;-78
2024/02/16 03:11:05;;;;;;;5.55;1.70;;;11.00;99.90;;;14.81;100.00;100312.75;5032643;28;20030;-78
2024/02/16 03:13:33;;;;;;;3.75;1.70;;;10.90;99.90;;;14.75;100.00;100316.53;5030553;28;20449;-78
2024/02/16 03:15:58;;;;;;;4.47;1.77;;;10.80;99.90;;;14.46;100.00;100310.31;5032528;28;20128;-78
2024/02/16 03:18:24;;;;;;;6.13;1.60;;;10.80;99.90;;;14.70;100.00;100305.44;5010808;28;20044;-78
2024/02/16 03:20:50;;;;;;;4.90;2.00;;;10.80;99.90;;;14.87;100.00;100315.59;5030460;28;20484;-78
2024/02/16 03:23:16;;;;;;;3.70;1.77;;;10.80;99.90;;;14.84;100.00;100311.44;5029669;28;20485;-78
2024/02/16 03:25:42;;;;;;;4.65;1.83;;;10.90;99.90;;;14.80;100.00;100311.09;5031488;28;20068;-79
2024/02/16 03:28:13;;;;;;;2.95;1.33;;;11.00;99.90;;;14.85;100.00;100307.59;5031664;28;20034;-79
2024/02/16 03:30:40;;;;;;;5.20;1.88;;;11.20;99.90;;;14.60;100.00;100291.56;5031436;28;20069;-78
2024/02/16 03:33:06;;;;;;;6.53;1.83;;;11.20;99.90;;;14.60;100.00;100284.16;5030661;28;20034;-79
2024/02/16 03:35:31;;;;;;;4.43;1.77;;;11.30;99.90;;;14.56;100.00;100287.66;5026199;28;20030;-77
2024/02/16 03:37:57;;;;;;;7.25;1.83;;;11.30;99.90;;;14.60;100.00;100284.16;5031232;28;20033;-79
2024/02/16 03:40:24;;;;;;;3.72;1.75;;;11.30;99.90;;;14.73;100.00;100296.72;5031245;28;20034;-78
2024/02/16 03:42:53;;;;;;;5.17;1.60;;;11.30;99.90;;;14.80;100.00;100300.09;5031471;28;20457;-78
2024/02/16 03:45:20;;;;;;;4.50;1.73;;;11.20;99.90;;;14.81;100.00;100296.28;5013702;28;20029;-78
2024/02/16 03:47:48;;;;;;;3.72;1.52;;;11.20;99.90;;;14.71;100.00;100311.78;5030152;28;20026;-78
2024/02/16 03:50:14;;;;;;;7.45;1.77;;;11.20;99.90;;;14.66;100.00;100302.34;5031197;28;20180;-78
2024/02/16 03:52:40;;;;;;;4.40;1.50;;;11.20;99.90;;;14.78;100.00;100301.47;5031880;28;20042;-79
2024/02/16 03:55:07;;;;;;;4.82;1.55;;;11.20;99.90;;;14.88;100.00;100303.53;5030713;28;20401;-78
2024/02/16 03:57:33;;;;;;;5.63;1.77;;;11.20;99.90;;;14.86;100.00;100291.97;5031078;28;20037;-78
2024/02/16 03:59:59;;;;;;;4.15;1.60;;;11.20;99.90;;;14.99;100.00;100293.50;5031102;28;20044;-78
2024/02/16 04:02:25;;;;;;;3.38;1.40;;;11.30;99.90;;;15.21;100.00;100290.75;5030942;28;20044;-78
2024/02/16 04:04:51;;;;;;;3.85;1.30;;;11.40;99.90;;;15.07;100.00;100290.31;5029901;28;20106;-78
2024/02/16 04:07:17;;;;;;;4.00;1.33;;;11.40;99.90;;;15.17;100.00;100284.09;5028719;28;20128;-78
2024/02/16 04:09:43;;;;;;;6.45;1.60;;;11.50;99.90;;;15.25;100.00;100280.91;5029391;28;20040;-79
2024/02/16 04:12:10;;;;;;;4.07;1.33;;;11.50;99.90;;;15.24;100.00;100280.06;5029880;28;20040;-79
2024/02/16 04:14:36;;;;;;;3.83;1.40;;;11.60;99.90;;;15.06;100.00;100281.22;5030662;28;20037;-79
2024/02/16 04:17:01;;;;;;;4.38;1.50;;;11.60;99.90;;;14.97;100.00;100280.00;5030444;28;20294;-78
2024/02/16 04:19:28;;;;;;;2.85;1.35;;;11.60;99.90;;;14.99;100.00;100286.06;5030990;28;20108;-78
2024/02/16 04:21:53;;;;;;;5.20;1.40;;;11.60;99.90;;;15.33;100.00;100283.19;5029600;28;20044;-78
2024/02/16 04:24:19;;;;;;;4.07;1.50;;;11.60;99.90;;;15.34;100.00;100287.59;5030625;28;20041;-78
2024/02/16 04:26:45;;;;;;;5.15;1.60;;;11.60;99.90;;;15.38;100.00;100282.41;5030336;28;20042;-78
2024/02/16 04:29:11;;;;;;;4.40;1.50;;;11.60;99.90;;;15.16;100.00;100285.19;5030443;28;20044;-79
2024/02/16 04:31:46;;;;;;;4.30;1.65;;;11.50;99.90;;;15.20;100.00;100289.09;5030889;28;20087;-79
2024/02/16 04:34:12;;;;;;;3.22;1.48;;;11.50;99.90;;;15.06;100.00;100286.72;5030290;28;20029;-78
2024/02/16 04:36:38;;;;;;;4.53;1.48;;;11.40;99.90;;;14.96;100.00;100287.41;5029937;28;20091;-78
2024/02/16 04:39:03;;;;;;;3.67;1.70;;;11.40;99.90;;;14.88;100.00;100292.53;5027238;28;20037;-79
2024/02/16 04:41:30;;;;;;;4.47;1.50;;;11.40;99.90;;;14.98;100.00;100294.56;5025452;28;20481;-78
2024/02/16 04:43:55;;;;;;;3.08;1.25;;;11.30;99.90;;;15.02;100.00;100299.31;5029404;28;20580;-77
2024/02/16 04:46:21;;;;;;;3.92;1.33;;;11.30;99.90;;;15.25;100.00;100286.41;5030183;28;20037;-78
2024/02/16 04:48:47;;;;;;;5.60;1.52;;;11.30;99.90;;;15.07;100.00;100282.88;5027730;28;20060;-79
2024/02/16 04:51:13;;;;;;;4.80;1.58;;;11.40;99.90;;;15.37;100.00;100275.25;5028965;28;20053;-79
2024/02/16 04:53:39;;;;;;;2.95;1.23;;;11.50;99.90;;;15.19;100.00;100279.19;5026296;28;20037;-79
2024/02/16 04:56:05;;;;;;;3.55;1.90;;;11.60;99.90;;;15.34;100.00;100276.59;5027095;28;20460;-79
2024/02/16 04:58:31;;;;;;;6.18;1.50;;;11.70;99.90;;;15.20;100.00;100276.16;5027352;28;20056;-79
2024/02/16 05:00:57;;;;;;;4.45;1.40;;;11.70;99.90;;;15.55;100.00;100282.31;5025341;28;20095;-79
2024/02/16 05:03:24;;;;;;;4.93;1.45;;;11.80;99.90;;;15.32;100.00;100275.22;5009484;28;20513;-78
2024/02/16 05:05:50;;;;;;;3.97;1.50;;;11.90;99.90;;;15.41;100.00;100264.59;5027465;28;20477;-79
2024/02/16 05:08:15;;;;;;;2.60;1.33;;;12.00;99.90;;;15.51;100.00;100271.00;5029304;28;20049;-78
2024/02/16 05:10:41;;;;;;;4.72;1.60;;;12.00;99.90;;;15.46;100.00;100278.38;5028989;28;20049;-78
2024/02/16 05:13:07;;;;;;;5.15;1.38;;;12.00;99.90;;;15.52;100.00;100280.09;5011376;28;20473;-78
2024/02/16 05:15:33;;;;;;;9.65;1.65;;;12.00;99.90;;;15.37;100.00;100270.56;5029008;28;20079;-80
2024/02/16 05:17:58;;;;;;;4.38;1.77;;;11.90;99.90;;;15.35;100.00;100275.50;5029302;28;20025;-79
2024/02/16 05:20:25;;;;;;;4.20;1.70;;;11.90;99.90;;;15.44;100.00;100267.63;5009054;28;20460;-81
2024/02/16 05:22:51;;;;;;;4.25;1.58;;;11.80;99.90;;;15.57;100.00;100271.06;5024746;28;20045;-81
2024/02/16 05:25:17;;;;;;;4.97;1.42;;;11.70;99.90;;;15.62;100.00;100274.69;5029445;28;20407;-80
2024/02/16 05:27:45;;;;;;;4.15;1.40;;;11.80;99.90;;;15.67;100.00;100276.66;5028043;28;20029;-80
2024/02/16 05:30:15;;;;;;;6.28;1.60;;;11.80;99.90;;;15.87;99.77;100267.75;5029325;28;20042;-81
2024/02/16 05:32:42;;;;;;;5.15;1.20;;;11.90;99.90;;;15.95;99.05;100272.84;5009620;28;20037;-79
2024/02/16 05:35:12;;;;;;;4.43;1.30;;;12.00;99.90;;;15.92;97.36;100270.63;5027483;28;20041;-79
2024/02/16 05:37:51;;;;;;;6.80;1.77;;;12.10;99.90;;;15.91;97.84;100274.47;5028837;28;20116;-79
2024/02/16 05:40:28;;;;;;;4.03;1.52;;;12.20;99.90;;;16.11;96.63;100275.69;5029146;28;20040;-81
2024/02/16 05:42:58;;;;;;;5.00;1.55;;;12.30;99.90;;;16.19;95.92;100274.38;5029522;28;20029;-79
2024/02/16 05:45:25;;;;;;;3.08;1.42;;;12.30;99.90;;;15.97;96.91;100267.06;5026241;28;20056;-80
2024/02/16 05:47:51;;;;;;;4.68;1.55;;;12.30;99.90;;;15.86;97.17;100260.59;5028316;28;20520;-79
2024/02/16 05:50:20;;;;;;;4.55;1.60;;;12.20;99.90;;;15.86;97.90;100271.59;5008715;28;20049;-80
2024/02/16 05:52:45;;;;;;;5.00;1.60;;;12.20;99.90;;;15.91;97.73;100263.44;5022980;28;20026;-80
2024/02/16 05:55:13;;;;;;;3.22;1.40;;;12.10;99.90;;;15.77;99.56;100268.50;5027982;28;20045;-80
2024/02/16 05:57:39;;;;;;;2.33;1.45;;;12.00;99.90;;;15.74;99.51;100260.78;5028775;28;20029;-79
2024/02/16 06:00:08;;;;;;;4.38;1.50;;;11.90;99.90;;;15.71;100.00;100257.72;5024158;28;20057;-82
2024/02/16 06:02:34;;;;;;;3.33;1.63;;;11.90;99.90;;;15.75;99.57;100256.94;5023888;28;20041;-81
2024/02/16 06:05:02;;;;;;;4.70;1.38;;;11.80;99.90;;;15.47;100.00;100258.88;5026646;28;20045;-80
2024/02/16 06:07:32;;;;;;;4.20;1.60;;;11.70;99.90;;;15.38;100.00;100266.75;5027050;28;20109;-81
2024/02/16 06:09:57;;;;;;;4.72;1.45;;;11.70;99.90;;;15.49;100.00;100267.69;5026443;28;20046;-80
2024/02/16 06:12:23;;;;;;;5.00;1.40;;;11.70;99.90;;;15.39;100.00;100259.34;5045317;28;20052;-80
2024/02/16 06:14:49;;;;;;;4.38;1.50;;;11.70;99.90;;;15.05;100.00;100257.56;5047020;28;20404;-80
2024/02/16 06:17:16;;;;;;;4.57;1.65;;;11.60;99.90;;;15.08;100.00;100262.56;5029070;28;20029;-82
2024/02/16 06:19:43;;;;;;;3.70;1.55;;;11.50;99.90;;;15.06;100.00;100269.41;5030915;28;20033;-81
2024/02/16 06:22:09;;;;;;;3.05;1.60;;;11.40;99.90;;;14.96;100.00;100267.38;5047235;28;20026;-83
2024/02/16 06:24:35;;;;;;;6.03;1.58;;;11.30;99.90;;;14.98;100.00;100267.09;5032261;28;20041;-83
2024/02/16 06:27:01;;;;;;;8.18;1.85;;;11.30;99.90;;;15.10;100.00;100268.63;5032917;28;20037;-81
2024/02/16 06:29:27;;;;;;;3.22;1.60;;;11.30;99.90;;;14.91;100.00;100264.56;5032072;28;20044;-82
2024/02/16 06:31:53;;;;;;;5.90;1.60;;;11.30;99.90;;;14.89;100.00;100267.56;5033115;28;20178;-80
2024/02/16 06:34:19;;;;;;;3.65;1.52;;;11.30;99.90;;;15.21;100.00;100271.50;5030578;28;20048;-79
2024/02/16 06:36:45;;;;;;;5.80;1.73;;;11.40;99.90;;;14.94;100.00;100267.59;5030916;28;20037;-79
2024/02/16 06:39:16;;;;;;;5.15;1.80;;;11.40;99.90;;;15.16;100.00;100272.28;5048327;28;20489;-79
2024/02/16 06:41:43;;;;;;;4.95;1.67;;;11.40;99.90;;;15.04;100.00;100266.91;5027709;28;20034;-78
2024/02/16 06:44:10;;;;;;;6.13;2.00;;;11.40;99.90;;;14.99;100.00;100275.09;5031769;28;20110;-79
2024/02/16 06:46:35;;;;;;;2.90;1.65;;;11.40;99.90;;;14.98;100.00;100270.69;5032136;28;20046;-78
2024/02/16 06:49:01;;;;;;;5.10;1.83;;;11.50;99.90;;;15.27;100.00;100278.72;5031733;28;20041;-79
2024/02/16 06:51:28;;;;;;;5.88;1.80;;;11.50;99.90;;;15.70;100.00;100283.56;5032800;28;20048;-78
2024/02/16 06:53:55;;;;;;;6.00;1.75;;;11.50;99.90;;;15.58;100.00;100287.28;5032989;28;20029;-78
2024/02/16 06:56:21;;;;;;;3.40;1.60;;;11.50;99.90;;;15.45;100.00;100287.72;5032557;28;20037;-77
2024/02/16 06:58:47;;;;;;;4.65;1.52;;;11.50;99.90;;;15.79;100.00;100287.50;5008120;28;20511;-78
2024/02/16 07:01:14;;;;;;;4.57;1.70;;;11.40;99.90;;;15.68;100.00;100289.31;5033437;28;20041;-78
2024/02/16 07:03:41;;;;;;;4.63;1.70;;;11.40;99.90;;;15.19;100.00;100290.19;5031829;28;20420;-78
2024/02/16 07:06:09;;;;;;;5.13;1.80;;;11.40;99.90;;;15.43;100.00;100289.91;5013549;28;20034;-78
2024/02/16 07:08:39;;;;;;;4.93;1.70;;;11.40;99.90;;;15.71;100.00;100285.22;5032436;28;20040;-77
2024/02/16 07:11:05;;;;;;;4.22;1.83;;;11.50;99.90;;;15.41;100.00;100284.66;5032694;28;20025;-77
2024/02/16 07:13:34;;;;;;;3.45;1.55;;;11.50;99.90;;;15.58;100.00;100281.78;5031929;28;20060;-77
2024/02/16 07:16:00;;;;;;;2.97;1.48;;;11.60;99.90;;;15.69;100.00;100279.97;5031466;28;20497;-77
2024/02/16 07:18:26;;;;;;;4.60;1.83;;;11.60;99.90;;;15.82;99.34;100286.97;5032460;28;20109;-77
2024/02/16 07:20:52;;;;;;;5.45;1.80;;;11.70;99.90;;;15.48;100.00;100303.69;5032088;28;20037;-77
2024/02/16 07:23:17;;;;;;;5.43;1.80;;;11.80;99.90;;;15.56;100.00;100299.66;5032245;28;20037;-77
2024/02/16 07:25:44;;;;;;;4.72;1.45;;;11.90;99.90;;;15.50;100.00;100290.50;5031008;28;20088;-77
2024/02/16 07:28:09;;;;;;;5.97;1.50;;;12.00;99.90;;;15.48;100.00;100289.94;5031082;28;20397;-77
2024/02/16 07:30:38;;;;;;;2.92;1.60;;;12.00;99.90;;;15.50;100.00;100290.50;5028160;28;20049;-77
2024/02/16 07:33:07;;;;;;;5.35;1.98;;;12.10;99.90;;;15.59;100.00;100288.13;5032140;28;20385;-78
2024/02/16 07:35:35;;;;;;;6.18;1.80;;;12.10;99.90;;;15.62;100.00;100293.94;5030959;28;20030;-78
2024/02/16 07:38:02;;;;;;;6.18;2.50;;;12.10;99.90;;;15.70;100.00;100283.56;5032379;28;20033;-78
2024/02/16 07:40:28;;;;;;;4.50;1.40;;;12.10;99.90;;;15.72;100.00;100289.63;5032447;28;20037;-78
2024/02/16 07:42:54;;;;;;;4.60;1.60;;;12.10;99.90;;;15.94;98.91;100271.19;5031411;28;20041;-78
2024/02/16 07:45:21;;;;;;;4.75;1.58;;;12.20;99.90;;;15.95;97.38;100272.84;5013952;28;20040;-78
2024/02/16 07:47:46;;;;;;;3.08;1.50;;;12.40;99.90;;;15.96;97.20;100271.75;5032391;28;20044;-77
2024/02/16 07:50:12;;;;;;;3.55;1.75;;;12.50;99.90;;;16.03;95.88;100265.19;5047159;28;20120;-78
2024/02/16 07:52:39;;;;;;;6.53;1.98;;;12.60;99.90;;;16.25;96.48;100276.91;5029749;28;20042;-77
2024/02/16 07:55:06;;;;;;;5.65;1.65;;;12.60;99.90;;;16.60;92.59;100274.66;5032283;28;20507;-78
2024/02/16 07:57:32;;;;;;;4.90;1.63;;;12.60;99.90;;;16.87;90.10;100270.13;5031944;28;20040;-77
2024/02/16 07:59:58;;;;;;;3.63;1.50;;;12.70;99.90;;;16.45;92.63;100288.34;5031858;28;20037;-78
2024/02/16 08:02:23;;;;;;;5.68;1.83;;;12.80;99.90;;;16.38;92.02;100278.38;5031488;28;20056;-77
2024/02/16 08:04:51;;;;;;;3.80;1.77;;;12.80;99.90;;;16.25;93.45;100279.66;5031616;28;20041;-77
2024/02/16 08:07:16;;;;;;;3.30;1.40;;;12.80;99.90;;;16.38;94.48;100286.66;5031494;28;20096;-77
2024/02/16 08:09:46;;;;;;;3.28;1.60;;;12.80;99.90;;;16.40;93.90;100286.34;5029510;28;20041;-77
2024/02/16 08:12:16;;;;;;;4.03;1.70;;;12.90;99.90;;;16.79;91.59;100283.31;5028481;28;20029;-78
2024/02/16 08:14:42;;;;;;;4.05;1.73;;;;;;;16.80;91.01;100281.38;5031541;28;20389;-78
2024/02/16 08:17:09;;;;;;;4.38;1.67;;;;;;;16.90;90.28;100286.94;4998772;28;20034;-78
2024/02/16 08:19:37;;;;;;;4.93;1.67;;;;;;;17.07;89.79;100288.69;5030815;28;20625;-78
2024/02/16 08:22:07;;;;;;;3.65;1.50;;;13.10;99.90;;;17.11;88.16;100284.31;5029621;28;20045;-78
2024/02/16 08:24:35;;;;;;;4.15;1.85;;;13.60;99.90;;;17.11;87.97;100287.06;5030472;28;20049;-78
2024/02/16 08:27:01;;;;;;;4.20;1.70;;;13.70;99.90;;;17.29;86.15;100291.25;5029444;28;20033;-78
2024/02/16 08:29:27;;;;;;;4.05;1.85;;;;;;;17.66;83.24;100283.91;5030973;28;20386;-78
2024/02/16 08:31:54;;;;;;;3.85;1.55;;;13.80;99.90;;;17.75;83.78;100296.06;5030030;28;20084;-78
2024/02/16 08:34:21;;;;;;;4.30;1.80;;;14.00;99.90;;;17.77;83.25;100298.53;5045109;28;20041;-78
2024/02/16 08:36:50;;;;;;;4.45;1.50;;;14.00;99.90;;;17.58;81.95;100287.19;5029995;28;20036;-78
2024/02/16 08:39:17;;;;;;;3.70;1.55;;;14.10;99.90;;;17.74;81.91;100301.84;5031026;28;20037;-79
2024/02/16 08:41:48;;;;;;;5.00;1.67;;;14.10;99.90;;;17.36;83.33;100302.88;5031401;28;20116;-78
2024/02/16 08:44:14;;;;;;;4.35;1.30;;;14.10;99.90;;;17.54;82.72;100297.97;5030921;28;20524;-78
2024/02/16 08:46:40;;;;;;;2.67;1.40;;;14.10;99.90;;;17.57;82.84;100297.41;5013228;28;20042;-79
2024/02/16 08:49:06;;;;;;;5.10;1.60;;;14.10;99.90;;;17.36;85.36;100302.88;5030916;28;20037;-78
2024/02/16 08:51:33;;;;;;;3.22;1.50;;;14.00;99.90;;;17.64;83.91;100305.44;5030402;28;20079;-78
2024/02/16 08:54:00;;;;;;;5.85;1.77;;;13.90;99.90;;;17.17;88.28;100309.94;5022866;28;20495;-79
2024/02/16 08:56:27;;;;;;;3.95;1.42;;;13.90;99.90;;;17.25;87.79;100304.75;5030213;28;20485;-78
2024/02/16 08:58:52;;;;;;;3.60;1.40;;;13.90;99.90;;;17.05;88.80;100307.41;5031352;28;20536;-77
2024/02/16 09:01:18;;;;;;;3.13;1.55;;;13.90;99.90;;;17.67;87.39;100302.94;5011208;28;20042;-77
2024/02/16 09:03:44;;;;;;;5.15;1.48;;;13.90;99.90;;;17.74;86.50;100296.31;5030361;28;20040;-77
2024/02/16 09:06:10;;;;;;;3.60;1.52;;;14.10;99.90;;;17.89;85.67;100303.78;5030689;28;20420;-78
2024/02/16 09:08:35;;;;;;;5.35;1.63;;;14.10;99.90;;;17.86;85.11;100301.56;5030592;28;20083;-77
2024/02/16 09:11:05;;;;;;;4.82;1.65;;;14.20;99.90;;;18.01;84.18;100306.28;5029895;28;20037;-77
2024/02/16 09:13:40;;;;;;;4.38;1.50;;;14.20;99.90;;;18.10;84.38;100294.44;5030391;28;20033;-77
2024/02/16 09:16:07;;;;;;;3.58;1.90;;;14.30;99.90;;;17.85;84.83;100303.53;5024526;28;20072;-77
2024/02/16 09:18:33;;;;;;;5.95;1.67;;;14.20;99.90;;;18.01;82.92;100289.72;5012051;28;20111;-77
2024/02/16 09:20:59;;;;;;;4.80;1.50;;;14.20;99.90;;;17.89;83.93;100301.88;5030302;28;20104;-78
2024/02/16 09:23:26;;;;;;;4.65;1.52;;;14.20;99.90;;;17.87;84.29;100294.94;5030309;28;20405;-78
2024/02/16 09:25:52;;;;;;;4.97;1.52;;;14.20;99.90;;;17.85;83.51;100295.25;5041780;28;20076;-78
2024/02/16 09:28:18;;;;;;;4.60;1.80;;;14.10;99.90;;;17.77;85.44;100299.38;5030321;28;20401;-77
2024/02/16 09:30:45;;;;;;;4.07;1.58;;;14.20;99.90;;;17.78;84.33;100300.22;5045681;28;20072;-78
2024/02/16 09:33:10;;;;;;;5.38;1.88;;;14.10;99.90;;;17.37;88.11;100290.72;5045430;28;20485;-77
2024/02/16 09:35:36;;;;;;;4.65;1.80;;;14.20;99.90;;;17.98;84.62;100297.44;5011421;28;20041;-77
2024/02/16 09:38:02;;;;;;;5.05;1.65;;;;;;;18.25;82.56;100304.66;5011561;28;20045;-78
2024/02/16 09:40:29;;;;;;;3.40;1.60;;;;;;;18.17;82.55;100309.88;5030161;28;20049;-78
2024/02/16 09:42:55;;;;;;;4.05;1.58;;;;;;;17.94;83.55;100315.66;5029532;28;20045;-78
2024/02/16 09:45:23;;;;;;;2.97;1.60;;;;;;;18.36;81.41;100315.72;5029423;28;20523;-79
2024/02/16 09:47:51;;;;;;;3.97;1.55;;;;;;;18.35;80.80;100311.28;5029315;28;20124;-78
2024/02/16 09:50:17;;;;;;;4.82;1.60;;;;;;;18.49;78.41;100306.84;5044743;28;20099;-78
2024/02/16 09:52:48;;;;;;;3.65;1.60;;;;;;;18.80;76.07;100298.47;5029701;28;20096;-77
2024/02/16 09:55:15;;;;;;;3.75;1.50;;;;;;;18.71;76.10;100304.88;5030174;28;20443;-77
2024/02/16 09:57:43;;;;;;;4.03;1.50;;;;;;;18.78;76.87;100317.28;5029496;28;20048;-77
2024/02/16 10:00:09;;;;;;;;;;;;;;;18.87;74.15;100316.72;5031127;28;20293;-77
2024/02/16 10:02:48;;;;;;;4.18;1.40;;;;;;;18.92;75.32;100325.81;5029161;28;19921;-77
2024/02/16 10:05:21;;;;;;;4.10;1.48;;;;;;;18.89;75.55;100326.38;5029753;28;20497;-77
2024/02/16 10:07:48;;;;;;;3.60;1.50;;;;;;;19.51;72.24;100330.84;5029216;28;20187;-77
2024/02/16 10:10:30;;;;;;;3.40;1.50;;;;;;;19.40;72.85;100332.84;4998734;28;20498;-78